Time;durP1;ratioP1;P1;durP2;ratioP2;P2;SDS_P1;SDS_P2;PMS_P1;PMS_P2;Temp;Humidity;BMP_temperature;BMP_pressure;BME280_temperature;BME280_humidity;BME280_pressure;Samples;Min_cycle;Max_cycle;Signal;HPM_P1;HPM_P2
2021/04/04 00:00:31;;;;;;;5.95;1.65;;;10.40;85.70;;;;;;5076534;28;20051;-48
2021/04/04 00:03:36;;;;;;;4.50;1.80;;;10.40;85.50;;;;;;5077223;28;20505;-49
2021/04/04 00:06:41;;;;;;;6.45;2.00;;;10.30;87.00;;;;;;5091133;28;20054;-48
2021/04/04 00:09:46;;;;;;;5.10;1.95;;;10.30;86.70;;;;;;5087693;28;20035;-49
2021/04/04 00:12:50;;;;;;;2.90;1.63;;;10.20;86.60;;;;;;5091732;28;20043;-48
2021/04/04 00:15:54;;;;;;;3.60;1.65;;;10.20;87.40;;;;;;5091986;28;20517;-49
2021/04/04 00:18:58;;;;;;;5.28;2.00;;;10.10;88.60;;;;;;5092771;28;20043;-47
2021/04/04 00:22:03;;;;;;;3.45;2.10;;;10.10;89.90;;;;;;5091982;28;20055;-48
2021/04/04 00:25:11;;;;;;;5.35;2.28;;;10.10;89.70;;;;;;5079010;28;20039;-48
2021/04/04 00:28:15;;;;;;;3.42;2.00;;;10.00;90.20;;;;;;5092364;28;20398;-52
2021/04/04 00:31:21;;;;;;;4.80;1.98;;;10.10;88.80;;;;;;5091262;28;20047;-52
2021/04/04 00:34:24;;;;;;;4.15;1.95;;;10.10;88.90;;;;;;5091769;28;20114;-49
2021/04/04 00:37:29;;;;;;;5.30;2.38;;;10.20;89.30;;;;;;5091930;28;20410;-51
2021/04/04 00:40:34;;;;;;;2.35;1.73;;;10.10;89.80;;;;;;5076757;28;20074;-51
2021/04/04 00:43:39;;;;;;;4.65;1.63;;;10.20;87.30;;;;;;5091162;28;20039;-50
2021/04/04 00:46:43;;;;;;;3.20;1.60;;;10.30;87.80;;;;;;5091071;28;20554;-54
2021/04/04 00:49:48;;;;;;;4.15;1.98;;;10.20;90.00;;;;;;5091527;28;20410;-52
2021/04/04 00:52:53;;;;;;;4.60;1.95;;;10.20;90.50;;;;;;5090857;28;20440;-51
2021/04/04 00:55:57;;;;;;;4.43;1.83;;;10.10;90.60;;;;;;5091123;28;20042;-50
2021/04/04 00:59:03;;;;;;;3.92;2.08;;;10.00;90.90;;;;;;5077209;28;20035;-51
2021/04/04 01:02:07;;;;;;;5.07;2.17;;;9.90;90.70;;;;;;5090218;28;20039;-51
2021/04/04 01:05:15;;;;;;;11.98;1.90;;;9.90;89.00;;;;;;5090822;28;20028;-50
2021/04/04 01:08:20;;;;;;;4.45;2.05;;;10.00;87.90;;;;;;5079682;28;20043;-52
2021/04/04 01:11:36;;;;;;;2.35;1.60;;;10.00;88.30;;;;;;5076177;28;20051;-54
2021/04/04 01:14:50;;;;;;;4.90;1.70;;;10.10;85.70;;;;;;5090646;28;20390;-53
2021/04/04 01:17:58;;;;;;;1.92;1.50;;;10.20;85.80;;;;;;5090488;28;20043;-50
2021/04/04 01:21:09;;;;;;;2.42;1.58;;;10.10;87.70;;;;;;5087128;28;20051;-50
2021/04/04 01:24:46;;;;;;;3.28;2.20;;;9.90;90.40;;;;;;5090798;28;20043;-52
2021/04/04 01:27:55;;;;;;;3.03;1.40;;;9.80;90.60;;;;;;5085942;28;20044;-48
2021/04/04 01:31:00;;;;;;;2.65;1.77;;;9.80;90.90;;;;;;5090357;28;20032;-49
2021/04/04 01:34:06;;;;;;;4.47;1.73;;;9.70;91.30;;;;;;5090531;28;20024;-52
2021/04/04 01:37:14;;;;;;;3.83;1.45;;;9.70;91.30;;;;;;5078287;28;20048;-51
2021/04/04 01:40:18;;;;;;;4.18;1.70;;;9.70;91.30;;;;;;5090308;28;20064;-52
2021/04/04 01:43:24;;;;;;;3.63;1.58;;;9.60;91.40;;;;;;5089464;28;20044;-49
2021/04/04 01:46:29;;;;;;;3.22;1.60;;;9.60;91.50;;;;;;5089987;28;20040;-48
2021/04/04 01:49:35;;;;;;;4.07;1.63;;;9.60;91.10;;;;;;5089818;28;20044;-51
2021/04/04 01:52:40;;;;;;;3.00;1.67;;;9.70;90.80;;;;;;5079410;28;20043;-53
2021/04/04 01:55:47;;;;;;;4.07;1.77;;;9.70;90.90;;;;;;5076795;28;20028;-50
2021/04/04 01:58:53;;;;;;;3.58;1.70;;;9.70;90.90;;;;;;5089760;28;20478;-49
2021/04/04 02:01:59;;;;;;;3.90;1.70;;;9.70;90.90;;;;;;5089054;28;20415;-48
2021/04/04 02:05:09;;;;;;;5.95;2.70;;;9.70;90.60;;;;;;5089793;28;20047;-51
2021/04/04 02:08:15;;;;;;;4.97;1.73;;;9.60;90.80;;;;;;5074810;28;20036;-48
2021/04/04 02:11:23;;;;;;;4.35;1.40;;;9.50;90.90;;;;;;5089215;28;20040;-54
2021/04/04 02:14:27;;;;;;;2.30;1.35;;;9.70;90.10;;;;;;5089317;28;20036;-50
2021/04/04 02:17:34;;;;;;;3.35;1.70;;;9.70;90.60;;;;;;5089382;28;20028;-47
2021/04/04 02:20:39;;;;;;;2.97;1.63;;;9.60;90.50;;;;;;5089835;28;20044;-50
2021/04/04 02:23:43;;;;;;;2.83;1.40;;;9.70;89.90;;;;;;5089000;28;20391;-52
2021/04/04 02:26:52;;;;;;;5.05;1.70;;;9.80;88.00;;;;;;5076126;28;20024;-50
2021/04/04 02:29:56;;;;;;;4.00;1.63;;;9.70;89.80;;;;;;5089256;28;20028;-51
2021/04/04 02:33:05;;;;;;;2.45;1.35;;;9.80;88.20;;;;;;5089239;28;20036;-48
2021/04/04 02:36:11;;;;;;;3.15;1.65;;;9.90;87.60;;;;;;5089324;28;20040;-48
2021/04/04 02:39:30;;;;;;;3.78;1.65;;;9.90;89.40;;;;;;5089866;28;20036;-51
2021/04/04 02:42:37;;;;;;;6.22;1.50;;;9.60;90.90;;;;;;5079263;28;20482;-48
2021/04/04 02:45:45;;;;;;;3.08;1.63;;;9.40;91.80;;;;;;5086927;28;20036;-47
2021/04/04 02:48:58;;;;;;;4.53;1.50;;;9.30;90.50;;;;;;5089782;28;20032;-52
2021/04/04 02:52:06;;;;;;;4.70;1.52;;;9.20;91.40;;;;;;5088662;28;20040;-47
2021/04/04 02:55:12;;;;;;;4.28;1.60;;;9.00;90.60;;;;;;5089204;28;20032;-48
2021/04/04 02:58:20;;;;;;;3.58;1.60;;;9.00;91.60;;;;;;5089011;28;20036;-48
2021/04/04 03:01:29;;;;;;;4.93;2.17;;;9.00;91.90;;;;;;5079457;28;20044;-48
2021/04/04 03:04:36;;;;;;;2.35;1.60;;;8.90;91.90;;;;;;5076902;28;20040;-48
2021/04/04 03:07:43;;;;;;;2.88;1.45;;;8.70;92.30;;;;;;5088923;28;20032;-53
2021/04/04 03:10:50;;;;;;;2.60;1.70;;;8.60;92.70;;;;;;5088984;28;20040;-52
2021/04/04 03:13:56;;;;;;;5.15;1.52;;;8.50;92.80;;;;;;5074636;28;20037;-48
2021/04/04 03:17:01;;;;;;;3.88;1.45;;;8.60;91.90;;;;;;5088879;28;20376;-48
2021/04/04 03:20:08;;;;;;;8.77;1.90;;;8.80;91.20;;;;;;5080365;28;20478;-48
2021/04/04 03:23:16;;;;;;;2.20;1.65;;;8.70;91.40;;;;;;5075604;28;20036;-52
2021/04/04 03:26:22;;;;;;;3.35;1.55;;;8.60;91.20;;;;;;5088959;28;20375;-49
2021/04/04 03:29:27;;;;;;;4.45;2.60;;;8.50;91.00;;;;;;5088736;28;20032;-48
2021/04/04 03:32:36;;;;;;;5.00;1.73;;;8.50;91.00;;;;;;5088699;28;20048;-48
2021/04/04 03:35:40;;;;;;;3.50;1.60;;;8.50;90.60;;;;;;5091697;28;20032;-54
2021/04/04 03:38:48;;;;;;;5.55;1.60;;;8.40;91.90;;;;;;5082051;28;20514;-49
2021/04/04 03:41:55;;;;;;;2.55;1.60;;;8.30;92.50;;;;;;5079470;28;20617;-49
2021/04/04 03:45:00;;;;;;;4.15;1.60;;;8.20;92.80;;;;;;5092079;28;20395;-50
2021/04/04 03:48:05;;;;;;;4.32;1.63;;;8.10;93.00;;;;;;5087914;28;20047;-48
2021/04/04 03:51:10;;;;;;;4.00;1.30;;;8.20;92.00;;;;;;5092247;28;20028;-49
2021/04/04 03:54:16;;;;;;;2.95;1.50;;;8.20;92.00;;;;;;5091912;28;20024;-49
2021/04/04 03:57:23;;;;;;;2.88;1.83;;;8.10;92.10;;;;;;5078848;28;20032;-50
2021/04/04 04:00:30;;;;;;;2.35;1.42;;;8.00;91.90;;;;;;5092136;28;20036;-50
2021/04/04 04:03:35;;;;;;;3.05;1.30;;;8.00;91.60;;;;;;5091594;28;20032;-49
2021/04/04 04:06:43;;;;;;;3.20;1.35;;;8.30;90.20;;;;;;5091597;28;20031;-47
2021/04/04 04:09:49;;;;;;;7.45;1.25;;;8.20;91.60;;;;;;5087217;28;20032;-48
2021/04/04 04:12:54;;;;;;;2.90;1.67;;;8.20;91.00;;;;;;5080732;28;20379;-48
2021/04/04 04:15:59;;;;;;;3.75;1.40;;;8.10;90.70;;;;;;5091880;28;20032;-48
2021/04/04 04:19:06;;;;;;;3.15;1.35;;;8.10;91.50;;;;;;5092077;28;20491;-48
2021/04/04 04:22:11;;;;;;;2.63;1.40;;;8.30;89.10;;;;;;5091610;28;20044;-48
2021/04/04 04:25:15;;;;;;;4.15;1.50;;;8.20;92.40;;;;;;5091485;28;20279;-52
2021/04/04 04:28:21;;;;;;;6.07;1.65;;;8.00;93.20;;;;;;5081232;28;20039;-48
2021/04/04 04:31:35;;;;;;;5.05;1.58;;;7.90;94.00;;;;;;5077542;28;20040;-49
2021/04/04 04:34:42;;;;;;;5.55;2.45;;;7.80;92.40;;;;;;5091081;28;20048;-48
2021/04/04 04:37:47;;;;;;;3.90;1.73;;;7.90;93.70;;;;;;5088669;28;20040;-49
2021/04/04 04:40:55;;;;;;;4.03;1.40;;;7.90;93.80;;;;;;5080515;28;20494;-49
2021/04/04 04:44:03;;;;;;;3.38;1.98;;;7.70;93.00;;;;;;5090983;28;20032;-48
2021/04/04 04:47:13;;;;;;;3.20;1.60;;;7.80;93.70;;;;;;5081062;28;20048;-48
2021/04/04 04:50:18;;;;;;;2.17;1.50;;;7.80;92.70;;;;;;5079089;28;20110;-52
2021/04/04 04:53:23;;;;;;;4.30;1.30;;;7.70;93.30;;;;;;5088960;28;20039;-49
2021/04/04 04:56:29;;;;;;;3.42;1.60;;;8.00;90.70;;;;;;5089652;28;20036;-48
2021/04/04 04:59:35;;;;;;;3.55;1.80;;;8.40;90.30;;;;;;5089314;28;20031;-48
2021/04/04 05:02:41;;;;;;;5.63;1.70;;;8.30;91.50;;;;;;5090828;28;20490;-47
2021/04/04 05:05:46;;;;;;;2.90;1.80;;;8.30;91.10;;;;;;5090369;28;20502;-47
2021/04/04 05:08:51;;;;;;;3.17;1.98;;;8.30;91.50;;;;;;5091070;28;20513;-48
2021/04/04 05:11:56;;;;;;;3.22;2.10;;;8.30;90.90;;;;;;5090399;28;20036;-46
2021/04/04 05:15:02;;;;;;;4.03;1.92;;;8.30;92.00;;;;;;5090418;28;20285;-48
2021/04/04 05:18:07;;;;;;;3.28;1.73;;;8.20;93.20;;;;;;5080051;28;20024;-48
2021/04/04 05:21:12;;;;;;;2.78;1.50;;;8.10;93.60;;;;;;5077409;28;20055;-48
2021/04/04 05:24:16;;;;;;;7.00;1.70;;;8.00;93.70;;;;;;5091139;28;20040;-48
2021/04/04 05:27:21;;;;;;;2.22;1.55;;;8.10;92.70;;;;;;5090902;28;20039;-47
2021/04/04 05:30:26;;;;;;;4.82;1.52;;;8.10;92.40;;;;;;5090991;28;20052;-47
2021/04/04 05:33:31;;;;;;;5.18;1.73;;;8.30;92.60;;;;;;5080428;28;20040;-48
2021/04/04 05:36:34;;;;;;;3.70;1.77;;;8.50;91.70;;;;;;5090298;28;20036;-48
2021/04/04 05:39:39;;;;;;;5.43;1.70;;;8.60;91.30;;;;;;5090748;28;20032;-47
2021/04/04 05:42:51;;;;;;;2.33;1.52;;;9.30;89.00;;;;;;5090726;28;20040;-48
2021/04/04 05:46:06;;;;;;;2.85;1.27;;;11.00;87.60;;;;;;5090106;28;20032;-47
2021/04/04 05:49:33;;;;;;;1.73;1.17;;;12.90;85.00;;;;;;5090612;28;20517;-46
2021/04/04 05:52:46;;;;;;;3.67;1.48;;;14.60;83.40;;;;;;5089851;28;20409;-50
2021/04/04 05:56:52;;;;;;;4.03;1.60;;;15.10;81.80;;;;;;5089691;28;20063;-46
2021/04/04 06:00:05;;;;;;;3.83;1.17;;;14.20;78.40;;;;;;5066994;28;20035;-49
2021/04/04 06:03:48;;;;;;;4.28;1.70;;;14.20;77.80;;;;;;5064586;28;20056;-50
2021/04/04 06:07:21;;;;;;;5.57;1.73;;;14.00;74.50;;;;;;5035824;28;20047;-48
2021/04/04 06:10:43;;;;;;;2.78;1.20;;;14.60;75.50;;;;;;5084024;28;20050;-48
2021/04/04 06:14:29;;;;;;;4.53;1.17;;;16.10;75.80;;;;;;5076479;28;20059;-47
2021/04/04 06:17:46;;;;;;;4.75;1.05;;;17.20;75.70;;;;;;5074026;28;20058;-51
2021/04/04 06:21:10;;;;;;;3.40;1.27;;;17.40;71.50;;;;;;5068619;28;20051;-49
2021/04/04 06:24:52;;;;;;;2.90;1.20;;;16.10;70.70;;;;;;5076795;28;20043;-47
2021/04/04 06:28:02;;;;;;;3.33;1.30;;;16.00;71.90;;;;;;5056609;28;20047;-48
2021/04/04 06:31:26;;;;;;;6.38;1.40;;;16.90;72.30;;;;;;5074004;28;20043;-47
2021/04/04 06:34:39;;;;;;;3.03;1.38;;;16.50;72.60;;;;;;5073802;28;20046;-48
2021/04/04 06:38:31;;;;;;;6.78;1.73;;;17.70;71.90;;;;;;5070483;28;20489;-50
2021/04/04 06:42:00;;;;;;;4.90;1.17;;;20.30;69.40;;;;;;5076180;28;20051;-52
2021/04/04 06:45:19;;;;;;;2.30;1.25;;;19.60;62.40;;;;;;5074418;28;20047;-48
2021/04/04 06:48:30;;;;;;;3.03;1.40;;;18.00;62.90;;;;;;5070464;28;20044;-48
2021/04/04 06:51:40;;;;;;;2.53;1.00;;;17.70;64.90;;;;;;5071302;28;20031;-49
2021/04/04 06:55:02;;;;;;;4.07;1.70;;;18.20;63.90;;;;;;5065565;28;20052;-49
2021/04/04 06:58:43;;;;;;;2.70;1.23;;;20.20;59.30;;;;;;5067215;28;20035;-51
2021/04/04 07:02:03;;;;;;;3.15;1.40;;;21.60;58.20;;;;;;5080286;28;20051;-50
2021/04/04 07:05:13;;;;;;;3.35;1.35;;;20.20;61.50;;;;;;5073803;28;21002;-48
2021/04/04 07:08:51;;;;;;;3.38;1.52;;;19.80;59.60;;;;;;5075270;28;20051;-50
2021/04/04 07:12:11;;;;;;;4.80;1.65;;;20.40;59.50;;;;;;5083408;28;20055;-48
2021/04/04 07:15:53;;;;;;;2.58;1.38;;;18.90;60.70;;;;;;5076920;28;20043;-50
2021/04/04 07:19:19;;;;;;;4.35;1.45;;;19.90;60.30;;;;;;5082887;28;20398;-50
2021/04/04 07:22:34;;;;;;;2.17;1.10;;;18.10;61.40;;;;;;5078482;28;20540;-49
2021/04/04 07:25:57;;;;;;;3.05;1.10;;;20.00;61.90;;;;;;5081072;28;20055;-49
2021/04/04 07:29:27;;;;;;;2.17;1.10;;;22.70;56.00;;;;;;5080419;28;20054;-53
2021/04/04 07:32:48;;;;;;;1.85;0.85;;;24.10;53.80;;;;;;5078395;28;20454;-49
2021/04/04 07:36:29;;;;;;;4.60;1.08;;;23.50;50.60;;;;;;5077300;28;20047;-50
2021/04/04 07:40:13;;;;;;;2.13;0.98;;;23.80;49.60;;;;;;5076785;28;20049;-49
2021/04/04 07:43:27;;;;;;;1.63;1.00;;;23.60;54.00;;;;;;5079265;28;21421;-52
2021/04/04 07:46:47;;;;;;;6.35;1.05;;;26.10;47.20;;;;;;5071313;28;20031;-50
2021/04/04 07:50:00;;;;;;;1.65;0.80;;;26.30;46.30;;;;;;5072935;28;20534;-49
2021/04/04 07:53:11;;;;;;;4.82;1.00;;;26.40;44.90;;;;;;5077960;28;20098;-50
2021/04/04 07:56:23;;;;;;;1.40;0.80;;;27.70;44.40;;;;;;5077574;28;20410;-52
2021/04/04 07:59:50;;;;;;;2.25;1.10;;;26.40;44.00;;;;;;5072568;28;20502;-49
2021/04/04 08:03:29;;;;;;;3.92;1.15;;;27.20;44.40;;;;;;5079123;28;20032;-55
2021/04/04 08:07:10;;;;;;;2.67;1.10;;;28.00;42.90;;;;;;5070036;28;20040;-51
2021/04/04 08:10:52;;;;;;;2.88;0.90;;;25.90;43.30;;;;;;5067157;28;20043;-49
2021/04/04 08:14:02;;;;;;;2.13;1.20;;;26.50;43.90;;;;;;5050036;28;20036;-48
2021/04/04 08:17:07;;;;;;;2.53;1.17;;;26.90;43.30;;;;;;5075356;28;20039;-53
2021/04/04 08:20:42;;;;;;;1.75;1.10;;;27.40;43.30;;;;;;5070266;28;20048;-49
2021/04/04 08:24:11;;;;;;;1.80;0.88;;;25.50;41.30;;;;;;5074732;28;20047;-54
2021/04/04 08:27:24;;;;;;;3.63;1.00;;;26.60;42.60;;;;;;5072969;28;20047;-50
2021/04/04 08:30:48;;;;;;;2.30;0.90;;;28.10;41.40;;;;;;5071776;28;20415;-51
2021/04/04 08:34:17;;;;;;;5.40;1.20;;;27.00;41.50;;;;;;5083833;28;20046;-51
2021/04/04 08:37:41;;;;;;;4.38;1.25;;;27.80;40.70;;;;;;5069768;28;20047;-50
2021/04/04 08:40:47;;;;;;;4.28;1.20;;;27.70;41.30;;;;;;5071805;28;20035;-54
2021/04/04 08:43:58;;;;;;;3.05;1.40;;;28.70;41.10;;;;;;5071251;28;20104;-54
2021/04/04 08:47:24;;;;;;;8.27;1.35;;;29.00;39.50;;;;;;5070941;28;20395;-55
2021/04/04 08:50:29;;;;;;;3.40;1.35;;;28.50;40.40;;;;;;5071322;28;20040;-51
2021/04/04 08:53:41;;;;;;;3.50;1.20;;;28.80;40.00;;;;;;5071097;28;20039;-51
2021/04/04 08:56:48;;;;;;;3.10;1.02;;;24.40;42.00;;;;;;5069765;28;20509;-54
2021/04/04 08:59:54;;;;;;;6.50;2.88;;;23.70;43.40;;;;;;5070427;28;20048;-52
2021/04/04 09:03:08;;;;;;;4.35;1.20;;;24.50;44.10;;;;;;5083822;28;20059;-55
2021/04/04 09:06:14;;;;;;;4.55;1.30;;;26.10;42.20;;;;;;5090710;28;20051;-53
2021/04/04 09:09:22;;;;;;;2.53;1.10;;;28.10;41.10;;;;;;5090714;28;20075;-51
2021/04/04 09:12:33;;;;;;;2.22;1.00;;;29.60;40.00;;;;;;5090825;28;20047;-52
2021/04/04 09:16:13;;;;;;;2.45;1.10;;;28.60;39.20;;;;;;5090426;28;20328;-51
2021/04/04 09:19:26;;;;;;;1.98;1.02;;;25.70;40.10;;;;;;5090527;28;20035;-52
2021/04/04 09:22:32;;;;;;;4.97;1.25;;;23.00;43.20;;;;;;5075901;28;20050;-50
2021/04/04 09:25:41;;;;;;;2.70;1.42;;;22.80;45.80;;;;;;5090597;28;20039;-51
2021/04/04 09:28:46;;;;;;;6.30;1.25;;;21.60;45.30;;;;;;5090621;28;20055;-52
2021/04/04 09:31:52;;;;;;;6.38;1.50;;;23.80;44.40;;;;;;5090258;28;20047;-51
2021/04/04 09:34:58;;;;;;;2.80;1.20;;;24.20;42.10;;;;;;5090302;28;20062;-53
2021/04/04 09:38:07;;;;;;;2.88;1.17;;;27.40;41.50;;;;;;5090049;28;20864;-49
2021/04/04 09:41:12;;;;;;;6.43;2.22;;;29.40;39.60;;;;;;5090407;28;20054;-54
2021/04/04 09:44:16;;;;;;;5.57;1.50;;;31.40;39.10;;;;;;5090303;28;20058;-50
2021/04/04 09:47:34;;;;;;;2.42;1.25;;;31.00;37.80;;;;;;5089902;28;20043;-53
2021/04/04 09:50:37;;;;;;;3.33;1.30;;;30.50;38.60;;;;;;5090373;28;20410;-53
2021/04/04 09:53:43;;;;;;;11.00;1.90;;;30.40;37.70;;;;;;5088951;28;20059;-52
2021/04/04 09:56:56;;;;;;;3.40;2.00;;;28.10;38.90;;;;;;5089184;28;20070;-50
2021/04/04 10:00:00;;;;;;;6.15;1.73;;;26.20;40.80;;;;;;5089544;28;20047;-49
2021/04/04 10:03:18;;;;;;;5.15;1.55;;;26.10;41.50;;;;;;5089642;28;20055;-55
2021/04/04 10:06:22;;;;;;;3.40;1.40;;;27.80;40.80;;;;;;5089407;28;20051;-55
2021/04/04 10:09:39;;;;;;;2.67;1.70;;;29.60;39.30;;;;;;5081409;28;20043;-55
2021/04/04 10:13:00;;;;;;;4.32;1.50;;;30.10;38.60;;;;;;5090088;28;20051;-50
2021/04/04 10:16:17;;;;;;;2.92;1.42;;;30.70;37.50;;;;;;5089575;28;20039;-54
2021/04/04 10:19:21;;;;;;;5.07;1.20;;;28.50;37.30;;;;;;5090017;28;20063;-49
2021/04/04 10:22:26;;;;;;;5.05;1.75;;;25.50;40.30;;;;;;5089847;28;20047;-55
2021/04/04 10:25:31;;;;;;;20.10;13.48;;;25.70;40.50;;;;;;5089207;28;20506;-49
2021/04/04 10:28:44;;;;;;;11.82;7.75;;;24.70;41.40;;;;;;5089196;28;20402;-50
2021/04/04 10:31:49;;;;;;;2.80;1.23;;;28.60;40.60;;;;;;5089329;28;20406;-52
2021/04/04 10:34:59;;;;;;;5.10;4.20;;;28.70;38.10;;;;;;5089313;28;20051;-53
2021/04/04 10:38:06;;;;;;;3.47;1.63;;;27.20;39.20;;;;;;5089423;28;20047;-52
2021/04/04 10:41:11;;;;;;;4.32;1.45;;;24.50;40.00;;;;;;5089266;28;20051;-49
2021/04/04 10:44:23;;;;;;;20.65;13.05;;;23.00;42.30;;;;;;5088864;28;20039;-50
2021/04/04 10:47:26;;;;;;;;;;;23.70;42.90;;;;;;5089693;28;20047;-52
2021/04/04 10:50:31;;;;;;;3.08;1.60;;;22.60;43.00;;;;;;5089188;28;20298;-51
2021/04/04 10:53:36;;;;;;;3.00;1.58;;;21.00;45.30;;;;;;5074626;28;20051;-51
2021/04/04 10:56:42;;;;;;;3.60;1.90;;;23.20;43.20;;;;;;5068651;28;20048;-48
2021/04/04 10:59:47;;;;;;;4.15;2.63;;;24.50;42.10;;;;;;5085365;28;20039;-50
2021/04/04 11:02:52;;;;;;;4.55;2.05;;;26.40;41.10;;;;;;5087766;28;20039;-50
2021/04/04 11:06:00;;;;;;;6.70;3.95;;;28.40;39.30;;;;;;5085328;28;20051;-51
2021/04/04 11:09:04;;;;;;;4.25;1.50;;;30.40;38.60;;;;;;5088843;28;20047;-49
2021/04/04 11:12:09;;;;;;;3.75;1.65;;;29.20;38.40;;;;;;5089024;28;20035;-50
2021/04/04 11:15:16;;;;;;;5.47;2.40;;;28.20;38.30;;;;;;5089067;28;20409;-51
2021/04/04 11:18:30;;;;;;;7.03;1.60;;;28.30;38.80;;;;;;5079550;28;20401;-51
2021/04/04 11:21:42;;;;;;;7.30;3.60;;;30.00;38.40;;;;;;5077890;28;20035;-51
2021/04/04 11:25:10;;;;;;;3.05;1.42;;;31.50;37.40;;;;;;5089492;28;20051;-45
2021/04/04 11:28:16;;;;;;;2.30;1.45;;;31.10;37.30;;;;;;5088838;28;20047;-48
2021/04/04 11:31:25;;;;;;;3.58;1.50;;;30.60;37.20;;;;;;5086197;28;20043;-51
2021/04/04 11:34:30;;;;;;;3.30;1.60;;;30.90;37.10;;;;;;5078635;28;20437;-53
2021/04/04 11:37:37;;;;;;;5.05;1.35;;;30.20;36.20;;;;;;5075216;28;20627;-50
2021/04/04 11:40:42;;;;;;;2.38;1.23;;;28.80;37.90;;;;;;5073305;28;20036;-50
2021/04/04 11:43:50;;;;;;;6.78;1.55;;;29.30;36.90;;;;;;5079839;28;20666;-51
2021/04/04 11:46:56;;;;;;;5.10;1.60;;;28.30;37.60;;;;;;5073177;28;20040;-48
2021/04/04 11:50:01;;;;;;;5.82;2.30;;;27.70;38.20;;;;;;5075109;28;20043;-50
2021/04/04 11:53:41;;;;;;;9.48;3.78;;;27.80;38.80;;;;;;5077985;28;20406;-48
2021/04/04 11:56:47;;;;;;;9.65;5.68;;;28.70;37.30;;;;;;5083572;28;20043;-54
2021/04/04 11:59:54;;;;;;;5.72;2.00;;;28.90;36.80;;;;;;5086927;28;20043;-49
2021/04/04 12:03:03;;;;;;;2.72;1.73;;;28.20;36.80;;;;;;5079312;28;20055;-53
2021/04/04 12:06:13;;;;;;;3.55;1.65;;;26.80;37.20;;;;;;5075468;28;20410;-50
2021/04/04 12:09:18;;;;;;;8.15;4.03;;;26.10;37.40;;;;;;5080076;28;20062;-49
2021/04/04 12:12:23;;;;;;;7.45;1.90;;;28.10;37.60;;;;;;5090557;28;20051;-49
2021/04/04 12:15:29;;;;;;;4.20;1.45;;;27.10;36.60;;;;;;5080328;28;20406;-52
2021/04/04 12:18:33;;;;;;;7.00;2.00;;;24.90;37.90;;;;;;5078934;28;20047;-51
2021/04/04 12:21:51;;;;;;;5.25;1.90;;;26.00;38.40;;;;;;5076998;28;20059;-49
2021/04/04 12:24:55;;;;;;;4.20;1.58;;;27.10;37.30;;;;;;5080665;28;20039;-48
2021/04/04 12:28:02;;;;;;;5.95;1.80;;;29.20;37.10;;;;;;5075632;28;20027;-51
2021/04/04 12:31:14;;;;;;;4.22;1.58;;;29.30;35.80;;;;;;5088142;28;20051;-48
2021/04/04 12:34:19;;;;;;;6.18;1.90;;;30.00;35.80;;;;;;5078782;28;20190;-48
2021/04/04 12:37:25;;;;;;;3.08;1.48;;;29.30;35.80;;;;;;5084856;28;20035;-50
2021/04/04 12:40:30;;;;;;;5.47;1.35;;;29.30;36.20;;;;;;5082239;28;20088;-52
2021/04/04 12:43:39;;;;;;;3.83;1.63;;;29.00;35.20;;;;;;5081885;28;20402;-52
2021/04/04 12:46:43;;;;;;;3.30;1.83;;;26.70;35.70;;;;;;5087045;28;20050;-48
2021/04/04 12:50:09;;;;;;;3.60;1.63;;;24.50;37.20;;;;;;5078013;28;20043;-51
2021/04/04 12:53:27;;;;;;;3.85;2.00;;;24.90;38.00;;;;;;5079674;28;20106;-50
2021/04/04 12:56:36;;;;;;;3.45;1.77;;;25.40;37.90;;;;;;5076808;28;20040;-52
2021/04/04 12:59:44;;;;;;;4.65;1.38;;;26.70;37.40;;;;;;5088218;28;20039;-48
2021/04/04 13:03:05;;;;;;;7.63;1.50;;;26.90;37.40;;;;;;5085529;28;20044;-50
2021/04/04 13:06:09;;;;;;;4.18;1.58;;;27.10;36.30;;;;;;5081401;28;20042;-51
2021/04/04 13:09:20;;;;;;;;;;;28.70;36.20;;;;;;5082438;28;20035;-51
2021/04/04 13:12:24;;;;;;;7.72;1.50;;;27.90;36.30;;;;;;5081489;28;19916;-51
2021/04/04 13:15:30;;;;;;;1.50;1.23;;;27.40;35.50;;;;;;5081326;28;20032;-49
2021/04/04 13:19:02;;;;;;;5.03;1.67;;;26.90;35.60;;;;;;5081584;28;20048;-53
2021/04/04 13:22:10;;;;;;;6.35;1.40;;;25.10;36.90;;;;;;5080167;28;20111;-52
2021/04/04 13:25:14;;;;;;;6.63;2.15;;;24.20;39.10;;;;;;5082543;28;20501;-53
2021/04/04 13:28:31;;;;;;;7.18;2.08;;;24.80;38.70;;;;;;5077750;28;20047;-49
2021/04/04 13:31:36;;;;;;;3.00;1.48;;;26.30;38.00;;;;;;5083236;28;20044;-52
2021/04/04 13:34:43;;;;;;;4.10;1.42;;;27.50;36.70;;;;;;5076142;28;20039;-50
2021/04/04 13:37:48;;;;;;;6.00;1.60;;;26.00;36.90;;;;;;5083051;28;20038;-48
2021/04/04 13:40:52;;;;;;;4.43;1.90;;;25.90;36.80;;;;;;5081116;28;20035;-51
2021/04/04 13:43:57;;;;;;;4.13;1.30;;;26.00;36.40;;;;;;5084023;28;20047;-47
2021/04/04 13:47:02;;;;;;;5.07;1.92;;;24.60;36.90;;;;;;5080054;28;20406;-48
2021/04/04 13:50:16;;;;;;;5.30;1.40;;;25.10;37.20;;;;;;5083865;28;20042;-50
2021/04/04 13:53:34;;;;;;;3.95;1.40;;;24.90;36.70;;;;;;5081843;28;20043;-48
2021/04/04 13:56:59;;;;;;;3.50;1.73;;;25.40;36.60;;;;;;5074492;28;20043;-50
2021/04/04 14:00:10;;;;;;;3.08;1.70;;;24.60;36.40;;;;;;5079774;28;20059;-47
2021/04/04 14:03:15;;;;;;;10.80;1.60;;;24.00;37.90;;;;;;5084964;28;20445;-51
2021/04/04 14:06:19;;;;;;;7.38;1.77;;;22.90;38.20;;;;;;5075221;28;20047;-52
2021/04/04 14:09:30;;;;;;;13.57;2.67;;;22.80;38.90;;;;;;5076856;28;20058;-48
2021/04/04 14:12:34;;;;;;;4.85;1.52;;;23.00;39.50;;;;;;5075817;28;20046;-51
2021/04/04 14:15:39;;;;;;;3.90;1.45;;;22.90;38.70;;;;;;5075221;28;20039;-49
2021/04/04 14:18:46;;;;;;;3.05;1.70;;;22.40;39.50;;;;;;5073606;28;20048;-50
2021/04/04 14:21:51;;;;;;;4.72;1.77;;;21.60;39.40;;;;;;5069091;28;20043;-49
2021/04/04 14:25:00;;;;;;;9.18;1.98;;;20.90;42.80;;;;;;5070666;28;20031;-48
2021/04/04 14:28:04;;;;;;;3.30;1.60;;;20.10;42.50;;;;;;5072782;28;20032;-48
2021/04/04 14:31:08;;;;;;;3.67;1.45;;;19.20;42.30;;;;;;5072923;28;20035;-50
2021/04/04 14:34:12;;;;;;;4.70;1.73;;;18.60;44.30;;;;;;5083160;28;20039;-49
2021/04/04 14:37:19;;;;;;;3.70;1.70;;;18.30;43.00;;;;;;5082290;28;20078;-48
2021/04/04 14:40:22;;;;;;;3.17;1.67;;;17.60;41.90;;;;;;5085883;28;20051;-48
2021/04/04 14:46:33;;;;;;;2.95;1.63;;;17.70;46.40;;;;;;5076008;28;20050;-48
2021/04/04 14:49:37;;;;;;;4.50;1.52;;;18.00;44.10;;;;;;5077388;28;20051;-48
2021/04/04 14:52:50;;;;;;;3.83;1.50;;;18.30;42.50;;;;;;5079353;28;20059;-52
2021/04/04 14:55:57;;;;;;;3.97;1.73;;;17.80;43.80;;;;;;5061885;28;20398;-51
2021/04/04 14:59:01;;;;;;;3.58;1.40;;;17.10;44.00;;;;;;5080289;28;20035;-49
2021/04/04 15:02:22;;;;;;;2.85;1.70;;;17.40;45.20;;;;;;5076967;28;20406;-52
2021/04/04 15:05:26;;;;;;;5.57;2.90;;;17.00;43.70;;;;;;5077741;28;20051;-48
2021/04/04 15:08:30;;;;;;;5.03;1.85;;;17.20;43.40;;;;;;5088535;28;20509;-48
2021/04/04 15:11:35;;;;;;;4.43;1.85;;;17.40;44.00;;;;;;5089205;28;20043;-50
2021/04/04 15:14:41;;;;;;;3.97;1.63;;;17.50;44.20;;;;;;5080179;28;20035;-51
2021/04/04 15:17:47;;;;;;;3.72;1.70;;;17.60;44.00;;;;;;5088958;28;20039;-53
2021/04/04 15:20:56;;;;;;;4.43;2.28;;;17.50;43.40;;;;;;5089074;28;20039;-47
2021/04/04 15:24:01;;;;;;;4.25;1.80;;;17.60;44.00;;;;;;5087868;28;20039;-48
2021/04/04 15:27:07;;;;;;;3.78;1.42;;;17.30;44.30;;;;;;5088976;28;20043;-47
2021/04/04 15:30:27;;;;;;;5.30;1.92;;;17.20;43.30;;;;;;5091604;28;20043;-47
2021/04/04 15:33:33;;;;;;;2.75;1.60;;;16.80;44.10;;;;;;5092019;28;20611;-50
2021/04/04 15:36:37;;;;;;;2.78;1.65;;;16.40;46.10;;;;;;5081958;28;20043;-49
2021/04/04 15:39:42;;;;;;;4.82;1.58;;;16.20;45.30;;;;;;5093328;28;20043;-48
2021/04/04 15:42:47;;;;;;;4.72;2.40;;;15.50;45.10;;;;;;5092426;28;20409;-48
2021/04/04 15:45:51;;;;;;;4.80;1.50;;;15.10;47.50;;;;;;5091469;28;20050;-48
2021/04/04 15:48:55;;;;;;;4.82;1.73;;;14.80;47.30;;;;;;5093001;28;20048;-48
2021/04/04 15:51:59;;;;;;;3.08;1.83;;;14.40;47.80;;;;;;5082303;28;20051;-48
2021/04/04 15:55:05;;;;;;;5.32;1.60;;;14.40;47.20;;;;;;5085302;28;20051;-48
2021/04/04 15:58:11;;;;;;;5.35;2.63;;;14.20;47.70;;;;;;5091226;28;20043;-48
2021/04/04 16:01:15;;;;;;;7.70;1.90;;;14.40;47.30;;;;;;5092299;28;20043;-53
2021/04/04 16:04:19;;;;;;;5.38;1.67;;;14.70;46.80;;;;;;5091974;28;20532;-50
2021/04/04 16:07:24;;;;;;;2.55;1.50;;;14.80;46.40;;;;;;5090999;28;20409;-51
2021/04/04 16:13:34;;;;;;;3.13;1.92;;;14.40;45.60;;;;;;5091427;28;20039;-49
2021/04/04 16:16:39;;;;;;;2.33;1.60;;;14.40;46.00;;;;;;5091872;28;20616;-49
2021/04/04 16:19:43;;;;;;;3.13;1.58;;;14.40;45.30;;;;;;5091994;28;20043;-48
2021/04/04 16:22:49;;;;;;;3.08;1.88;;;14.40;46.30;;;;;;5092203;28;20237;-49
2021/04/04 16:25:54;;;;;;;3.05;1.80;;;14.20;44.60;;;;;;5092053;28;20047;-49
2021/04/04 16:28:57;;;;;;;6.75;3.53;;;13.90;45.90;;;;;;5092231;28;20055;-48
2021/04/04 16:32:02;;;;;;;3.78;2.13;;;13.60;45.20;;;;;;5092441;28;20039;-48
2021/04/04 16:35:09;;;;;;;4.70;1.60;;;13.60;44.40;;;;;;5090764;28;20047;-49
2021/04/04 16:38:14;;;;;;;3.20;1.67;;;13.70;44.50;;;;;;5092040;28;20199;-48
2021/04/04 16:41:18;;;;;;;5.68;1.80;;;13.40;44.30;;;;;;5090972;28;20043;-47